sensor_id;sensor_type;location;lat;lon;timestamp;pressure;altitude;pressure_sealevel;temperature;humidity
76074;BME280;64776;42.636;24.358;2023-02-01T00:01:40;89865.31;;;-3.31;84.00
76074;BME280;64776;42.636;24.358;2023-02-01T00:04:41;89858.66;;;-3.32;83.34
76074;BME280;64776;42.636;24.358;2023-02-01T00:07:46;89862.78;;;-3.35;81.96
76074;BME280;64776;42.636;24.358;2023-02-01T00:10:47;89851.31;;;-3.41;82.33
76074;BME280;64776;42.636;24.358;2023-02-01T00:13:48;89861.34;;;-3.39;81.52
76074;BME280;64776;42.636;24.358;2023-02-01T00:16:49;89859.72;;;-3.30;80.99
76074;BME280;64776;42.636;24.358;2023-02-01T00:19:50;89874.63;;;-3.30;80.04
76074;BME280;64776;42.636;24.358;2023-02-01T00:22:52;89880.97;;;-3.31;79.13
76074;BME280;64776;42.636;24.358;2023-02-01T00:25:53;89881.91;;;-3.18;77.79
76074;BME280;64776;42.636;24.358;2023-02-01T00:28:54;89894.69;;;-3.27;77.58
76074;BME280;64776;42.636;24.358;2023-02-01T00:31:54;89894.91;;;-3.14;77.56
76074;BME280;64776;42.636;24.358;2023-02-01T00:34:55;89903.88;;;-3.15;77.39
76074;BME280;64776;42.636;24.358;2023-02-01T00:37:57;89906.88;;;-3.17;76.44
76074;BME280;64776;42.636;24.358;2023-02-01T00:41:02;89893.09;;;-3.17;75.16
76074;BME280;64776;42.636;24.358;2023-02-01T00:44:03;89903.97;;;-3.22;74.78
76074;BME280;64776;42.636;24.358;2023-02-01T00:47:04;89913.72;;;-3.26;74.65
76074;BME280;64776;42.636;24.358;2023-02-01T00:50:05;89909.94;;;-3.25;75.56
76074;BME280;64776;42.636;24.358;2023-02-01T00:53:08;89900.59;;;-3.23;75.19
76074;BME280;64776;42.636;24.358;2023-02-01T00:56:09;89907.41;;;-3.29;75.65
76074;BME280;64776;42.636;24.358;2023-02-01T00:59:12;89898.47;;;-3.32;75.43
76074;BME280;64776;42.636;24.358;2023-02-01T01:02:13;89901.84;;;-3.31;74.58
76074;BME280;64776;42.636;24.358;2023-02-01T01:05:14;89910.41;;;-3.31;75.30
76074;BME280;64776;42.636;24.358;2023-02-01T01:08:16;89906.66;;;-3.30;75.04
76074;BME280;64776;42.636;24.358;2023-02-01T01:11:19;89903.34;;;-3.34;74.58
76074;BME280;64776;42.636;24.358;2023-02-01T01:14:20;89902.59;;;-3.31;74.67
76074;BME280;64776;42.636;24.358;2023-02-01T01:17:21;89892.16;;;-3.31;75.02
76074;BME280;64776;42.636;24.358;2023-02-01T01:20:21;89898.06;;;-3.26;75.18
76074;BME280;64776;42.636;24.358;2023-02-01T01:23:24;89887.69;;;-3.30;74.39
76074;BME280;64776;42.636;24.358;2023-02-01T01:26:27;89901.84;;;-3.31;75.10
76074;BME280;64776;42.636;24.358;2023-02-01T01:29:28;89904.38;;;-3.28;75.08
76074;BME280;64776;42.636;24.358;2023-02-01T01:32:29;89915.97;;;-3.28;75.18
76074;BME280;64776;42.636;24.358;2023-02-01T01:35:30;89914.19;;;-3.35;75.36
76074;BME280;64776;42.636;24.358;2023-02-01T01:38:32;89913.06;;;-3.34;76.40
76074;BME280;64776;42.636;24.358;2023-02-01T01:41:33;89903.81;;;-3.39;76.25
76074;BME280;64776;42.636;24.358;2023-02-01T01:44:56;89910.47;;;-3.38;74.82
76074;BME280;64776;42.636;24.358;2023-02-01T01:47:59;89889.25;;;-3.36;74.99
76074;BME280;64776;42.636;24.358;2023-02-01T01:51:02;89895.53;;;-3.34;74.55
76074;BME280;64776;42.636;24.358;2023-02-01T01:54:11;89898.06;;;-3.26;74.70
76074;BME280;64776;42.636;24.358;2023-02-01T01:57:17;89888.75;;;-3.28;75.28
76074;BME280;64776;42.636;24.358;2023-02-01T02:00:20;89895.19;;;-3.09;74.99
76074;BME280;64776;42.636;24.358;2023-02-01T02:03:23;89883.50;;;-3.24;75.26
76074;BME280;64776;42.636;24.358;2023-02-01T02:06:35;89880.84;;;-3.20;75.63
76074;BME280;64776;42.636;24.358;2023-02-01T02:09:39;89878.91;;;-3.16;74.62
76074;BME280;64776;42.636;24.358;2023-02-01T02:12:42;89875.34;;;-3.03;75.71
76074;BME280;64776;42.636;24.358;2023-02-01T02:15:52;89886.44;;;-3.22;76.27
76074;BME280;64776;42.636;24.358;2023-02-01T02:19:12;89885.31;;;-3.21;76.85
76074;BME280;64776;42.636;24.358;2023-02-01T02:22:42;89885.50;;;-3.08;76.56
76074;BME280;64776;42.636;24.358;2023-02-01T02:25:58;89890.88;;;-3.19;76.35
76074;BME280;64776;42.636;24.358;2023-02-01T02:32:48;89885.97;;;-3.13;75.84
76074;BME280;64776;42.636;24.358;2023-02-01T02:36:00;89880.22;;;-3.32;75.62
76074;BME280;64776;42.636;24.358;2023-02-01T02:39:06;89893.19;;;-3.24;76.15
76074;BME280;64776;42.636;24.358;2023-02-01T02:42:12;89885.16;;;-3.37;73.96
76074;BME280;64776;42.636;24.358;2023-02-01T02:45:19;89879.59;;;-3.39;74.67
76074;BME280;64776;42.636;24.358;2023-02-01T02:48:26;89871.81;;;-3.43;74.14
76074;BME280;64776;42.636;24.358;2023-02-01T02:51:32;89880.00;;;-3.44;72.78
76074;BME280;64776;42.636;24.358;2023-02-01T02:54:39;89877.03;;;-3.43;73.00
76074;BME280;64776;42.636;24.358;2023-02-01T02:57:43;89880.41;;;-3.46;73.31
76074;BME280;64776;42.636;24.358;2023-02-01T03:00:44;89877.03;;;-3.43;74.00
76074;BME280;64776;42.636;24.358;2023-02-01T03:03:46;89866.50;;;-3.36;73.00
76074;BME280;64776;42.636;24.358;2023-02-01T03:06:49;89866.56;;;-3.39;72.79
76074;BME280;64776;42.636;24.358;2023-02-01T03:09:50;89864.41;;;-3.48;72.57
76074;BME280;64776;42.636;24.358;2023-02-01T03:12:52;89857.94;;;-3.63;72.46
76074;BME280;64776;42.636;24.358;2023-02-01T03:15:58;89841.66;;;-3.44;71.90
76074;BME280;64776;42.636;24.358;2023-02-01T03:19:05;89847.31;;;-3.49;71.83
76074;BME280;64776;42.636;24.358;2023-02-01T03:22:11;89850.34;;;-3.54;72.35
76074;BME280;64776;42.636;24.358;2023-02-01T03:25:16;89856.78;;;-3.62;73.35
76074;BME280;64776;42.636;24.358;2023-02-01T03:28:20;89866.22;;;-3.71;74.03
76074;BME280;64776;42.636;24.358;2023-02-01T03:31:23;89862.69;;;-3.88;74.64
76074;BME280;64776;42.636;24.358;2023-02-01T03:34:24;89867.16;;;-3.88;75.03
76074;BME280;64776;42.636;24.358;2023-02-01T03:37:27;89865.81;;;-3.70;74.96
76074;BME280;64776;42.636;24.358;2023-02-01T03:40:33;89849.31;;;-3.60;75.10
76074;BME280;64776;42.636;24.358;2023-02-01T03:43:42;89849.91;;;-3.49;74.47
76074;BME280;64776;42.636;24.358;2023-02-01T03:46:48;89847.31;;;-3.49;74.17
76074;BME280;64776;42.636;24.358;2023-02-01T03:49:54;89851.78;;;-3.49;74.37
76074;BME280;64776;42.636;24.358;2023-02-01T03:53:01;89860.03;;;-3.54;74.21
76074;BME280;64776;42.636;24.358;2023-02-01T03:56:03;89853.66;;;-3.50;73.40
76074;BME280;64776;42.636;24.358;2023-02-01T03:59:04;89855.31;;;-3.63;74.71
76074;BME280;64776;42.636;24.358;2023-02-01T04:02:05;89866.47;;;-3.62;72.42
76074;BME280;64776;42.636;24.358;2023-02-01T04:05:06;89852.72;;;-3.63;72.94
76074;BME280;64776;42.636;24.358;2023-02-01T04:08:08;89847.25;;;-3.45;72.32
76074;BME280;64776;42.636;24.358;2023-02-01T04:11:09;89837.91;;;-3.43;72.40
76074;BME280;64776;42.636;24.358;2023-02-01T04:14:10;89846.44;;;-3.39;72.60
76074;BME280;64776;42.636;24.358;2023-02-01T04:17:11;89839.84;;;-3.47;73.31
76074;BME280;64776;42.636;24.358;2023-02-01T04:20:11;89833.94;;;-3.51;72.65
76074;BME280;64776;42.636;24.358;2023-02-01T04:23:14;89832.44;;;-3.52;72.32
76074;BME280;64776;42.636;24.358;2023-02-01T04:26:14;89827.19;;;-3.48;72.59
76074;BME280;64776;42.636;24.358;2023-02-01T04:29:15;89822.69;;;-3.48;73.64
76074;BME280;64776;42.636;24.358;2023-02-01T04:32:16;89828.66;;;-3.47;73.72
76074;BME280;64776;42.636;24.358;2023-02-01T04:35:17;89813.06;;;-3.51;74.49
76074;BME280;64776;42.636;24.358;2023-02-01T04:38:20;89845.06;;;-3.50;75.30
76074;BME280;64776;42.636;24.358;2023-02-01T04:41:21;89833.06;;;-3.44;74.73
76074;BME280;64776;42.636;24.358;2023-02-01T04:44:22;89836.06;;;-3.42;74.27
76074;BME280;64776;42.636;24.358;2023-02-01T04:47:23;89833.06;;;-3.41;74.51
76074;BME280;64776;42.636;24.358;2023-02-01T04:50:23;89824.53;;;-3.45;75.47
76074;BME280;64776;42.636;24.358;2023-02-01T04:53:26;89827.03;;;-3.38;74.83
76074;BME280;64776;42.636;24.358;2023-02-01T04:56:26;89819.91;;;-3.34;74.01
76074;BME280;64776;42.636;24.358;2023-02-01T04:59:27;89824.00;;;-3.33;74.47
76074;BME280;64776;42.636;24.358;2023-02-01T05:02:28;89823.25;;;-3.33;74.11
76074;BME280;64776;42.636;24.358;2023-02-01T05:05:29;89807.13;;;-3.24;73.75
76074;BME280;64776;42.636;24.358;2023-02-01T05:08:31;89808.19;;;-3.22;74.40
76074;BME280;64776;42.636;24.358;2023-02-01T05:11:32;89808.94;;;-3.21;74.40
76074;BME280;64776;42.636;24.358;2023-02-01T05:14:33;89810.50;;;-3.28;74.51
76074;BME280;64776;42.636;24.358;2023-02-01T05:17:34;89807.94;;;-3.31;74.58
76074;BME280;64776;42.636;24.358;2023-02-01T05:20:34;89820.94;;;-3.28;74.48
76074;BME280;64776;42.636;24.358;2023-02-01T05:23:37;89825.66;;;-3.19;73.68
76074;BME280;64776;42.636;24.358;2023-02-01T05:26:38;89803.81;;;-3.28;74.13
76074;BME280;64776;42.636;24.358;2023-02-01T05:29:39;89794.06;;;-3.24;74.00
76074;BME280;64776;42.636;24.358;2023-02-01T05:32:40;89812.75;;;-3.30;74.05
76074;BME280;64776;42.636;24.358;2023-02-01T05:35:41;89815.81;;;-3.35;74.23
76074;BME280;64776;42.636;24.358;2023-02-01T05:38:43;89802.09;;;-3.39;74.35
76074;BME280;64776;42.636;24.358;2023-02-01T05:41:44;89824.81;;;-3.39;74.73
76074;BME280;64776;42.636;24.358;2023-02-01T05:44:45;89823.19;;;-3.30;74.39
76074;BME280;64776;42.636;24.358;2023-02-01T05:47:45;89821.25;;;-3.22;74.44
76074;BME280;64776;42.636;24.358;2023-02-01T05:50:46;89819.72;;;-3.19;74.96
76074;BME280;64776;42.636;24.358;2023-02-01T05:53:48;89826.81;;;-3.20;74.54
76074;BME280;64776;42.636;24.358;2023-02-01T05:56:49;89814.84;;;-3.17;75.27
76074;BME280;64776;42.636;24.358;2023-02-01T05:59:50;89831.28;;;-3.20;75.46
76074;BME280;64776;42.636;24.358;2023-02-01T06:02:51;89823.00;;;-3.15;75.63
76074;BME280;64776;42.636;24.358;2023-02-01T06:05:52;89816.50;;;-3.04;76.00
76074;BME280;64776;42.636;24.358;2023-02-01T06:08:54;89821.31;;;-3.02;76.36
76074;BME280;64776;42.636;24.358;2023-02-01T06:11:55;89812.34;;;-3.01;77.42
76074;BME280;64776;42.636;24.358;2023-02-01T06:14:55;89801.97;;;-3.05;77.84
76074;BME280;64776;42.636;24.358;2023-02-01T06:17:56;89815.31;;;-2.99;78.53
76074;BME280;64776;42.636;24.358;2023-02-01T06:20:58;89797.47;;;-3.04;78.50
76074;BME280;64776;42.636;24.358;2023-02-01T06:24:01;89819.38;;;-2.98;78.90
76074;BME280;64776;42.636;24.358;2023-02-01T06:27:01;89801.75;;;-2.91;78.78
76074;BME280;64776;42.636;24.358;2023-02-01T06:30:03;89792.03;;;-2.90;78.90
76074;BME280;64776;42.636;24.358;2023-02-01T06:33:04;89811.78;;;-2.89;79.67
76074;BME280;64776;42.636;24.358;2023-02-01T06:36:06;89806.84;;;-2.84;79.21
76074;BME280;64776;42.636;24.358;2023-02-01T06:39:09;89806.69;;;-2.73;79.53
76074;BME280;64776;42.636;24.358;2023-02-01T06:42:10;89808.84;;;-2.68;79.12
76074;BME280;64776;42.636;24.358;2023-02-01T06:45:11;89822.25;;;-2.66;79.07
76074;BME280;64776;42.636;24.358;2023-02-01T06:48:11;89820.69;;;-2.64;78.94
76074;BME280;64776;42.636;24.358;2023-02-01T06:51:20;89800.09;;;-2.58;78.53
76074;BME280;64776;42.636;24.358;2023-02-01T06:54:22;89812.75;;;-2.57;78.66
76074;BME280;64776;42.636;24.358;2023-02-01T06:57:23;89830.91;;;-2.50;79.26
76074;BME280;64776;42.636;24.358;2023-02-01T07:00:24;89836.56;;;-2.31;78.38
76074;BME280;64776;42.636;24.358;2023-02-01T07:03:25;89836.66;;;-2.35;79.10
76074;BME280;64776;42.636;24.358;2023-02-01T07:10:25;89854.03;;;-2.05;77.24
76074;BME280;64776;42.636;24.358;2023-02-01T07:13:26;89849.72;;;-2.15;77.60
76074;BME280;64776;42.636;24.358;2023-02-01T07:16:27;89865.56;;;-2.03;78.02
76074;BME280;64776;42.636;24.358;2023-02-01T07:19:28;89869.25;;;-1.81;76.57
76074;BME280;64776;42.636;24.358;2023-02-01T07:22:28;89874.34;;;-1.74;76.60
76074;BME280;64776;42.636;24.358;2023-02-01T07:25:31;89881.88;;;-1.76;76.14
76074;BME280;64776;42.636;24.358;2023-02-01T07:28:34;89868.47;;;-1.78;76.61
76074;BME280;64776;42.636;24.358;2023-02-01T07:31:35;89874.88;;;-1.63;76.19
76074;BME280;64776;42.636;24.358;2023-02-01T07:34:36;89874.97;;;-1.46;75.77
76074;BME280;64776;42.636;24.358;2023-02-01T07:37:36;89892.47;;;-1.63;75.97
76074;BME280;64776;42.636;24.358;2023-02-01T07:40:39;89895.94;;;-1.50;75.83
76074;BME280;64776;42.636;24.358;2023-02-01T07:43:40;89895.47;;;-1.45;75.48
76074;BME280;64776;42.636;24.358;2023-02-01T07:46:40;89885.47;;;-1.30;74.37
76074;BME280;64776;42.636;24.358;2023-02-01T07:49:41;89881.03;;;-1.33;74.72
76074;BME280;64776;42.636;24.358;2023-02-01T07:52:42;89882.56;;;-1.36;74.70
76074;BME280;64776;42.636;24.358;2023-02-01T07:55:45;89891.81;;;-1.31;74.86
76074;BME280;64776;42.636;24.358;2023-02-01T07:58:47;89879.94;;;-1.16;73.75
76074;BME280;64776;42.636;24.358;2023-02-01T08:01:48;89890.94;;;-1.25;75.24
76074;BME280;64776;42.636;24.358;2023-02-01T08:04:49;89883.47;;;-1.07;74.29
76074;BME280;64776;42.636;24.358;2023-02-01T08:07:50;89898.78;;;-1.05;73.23
76074;BME280;64776;42.636;24.358;2023-02-01T08:10:57;89896.84;;;-1.01;73.86
76074;BME280;64776;42.636;24.358;2023-02-01T08:13:58;89886.69;;;-0.99;73.35
76074;BME280;64776;42.636;24.358;2023-02-01T08:16:59;89879.09;;;-0.94;73.75
76074;BME280;64776;42.636;24.358;2023-02-01T08:20:00;89889.78;;;-1.04;74.12
76074;BME280;64776;42.636;24.358;2023-02-01T08:23:01;89900.44;;;-0.95;73.47
76074;BME280;64776;42.636;24.358;2023-02-01T08:26:07;89908.63;;;-0.93;74.27
76074;BME280;64776;42.636;24.358;2023-02-01T08:29:09;89902.91;;;-0.88;73.97
76074;BME280;64776;42.636;24.358;2023-02-01T08:32:10;89902.91;;;-0.72;73.67
76074;BME280;64776;42.636;24.358;2023-02-01T08:35:11;89914.78;;;-0.67;73.13
76074;BME280;64776;42.636;24.358;2023-02-01T08:38:12;89905.81;;;-0.66;72.55
76074;BME280;64776;42.636;24.358;2023-02-01T08:41:16;89919.28;;;-0.68;73.23
76074;BME280;64776;42.636;24.358;2023-02-01T08:44:18;89927.66;;;-0.73;73.46
76074;BME280;64776;42.636;24.358;2023-02-01T08:47:19;89910.16;;;-0.60;73.85
76074;BME280;64776;42.636;24.358;2023-02-01T08:50:20;89897.69;;;-0.72;73.31
76074;BME280;64776;42.636;24.358;2023-02-01T08:53:22;89905.53;;;-0.72;72.92
76074;BME280;64776;42.636;24.358;2023-02-01T08:56:24;89899.06;;;-0.67;73.47
76074;BME280;64776;42.636;24.358;2023-02-01T08:59:25;89893.59;;;-0.57;73.28
76074;BME280;64776;42.636;24.358;2023-02-01T09:02:26;89902.44;;;-0.51;71.79
76074;BME280;64776;42.636;24.358;2023-02-01T09:05:27;89907.38;;;-0.37;72.10
76074;BME280;64776;42.636;24.358;2023-02-01T09:08:28;89903.09;;;-0.47;73.20
76074;BME280;64776;42.636;24.358;2023-02-01T09:11:30;89920.63;;;-0.12;72.36
76074;BME280;64776;42.636;24.358;2023-02-01T09:14:31;89920.78;;;-0.03;71.21
76074;BME280;64776;42.636;24.358;2023-02-01T09:17:32;89927.50;;;-0.02;72.10
76074;BME280;64776;42.636;24.358;2023-02-01T09:20:33;89925.59;;;0.15;70.91
76074;BME280;64776;42.636;24.358;2023-02-01T09:23:34;89952.94;;;-0.15;72.38
76074;BME280;64776;42.636;24.358;2023-02-01T09:26:36;89933.38;;;0.19;71.56
76074;BME280;64776;42.636;24.358;2023-02-01T09:29:37;89947.06;;;0.26;72.11
76074;BME280;64776;42.636;24.358;2023-02-01T09:32:38;89948.06;;;0.16;72.02
76074;BME280;64776;42.636;24.358;2023-02-01T09:35:38;89941.19;;;0.22;72.54
76074;BME280;64776;42.636;24.358;2023-02-01T09:38:39;89929.38;;;0.14;71.55
76074;BME280;64776;42.636;24.358;2023-02-01T09:41:51;89949.78;;;0.23;72.63
76074;BME280;64776;42.636;24.358;2023-02-01T09:45:10;89926.91;;;0.23;71.36
76074;BME280;64776;42.636;24.358;2023-02-01T09:48:15;89925.50;;;0.19;72.04
76074;BME280;64776;42.636;24.358;2023-02-01T09:51:21;89918.00;;;0.05;72.83
76074;BME280;64776;42.636;24.358;2023-02-01T09:54:24;89935.94;;;0.22;72.96
76074;BME280;64776;42.636;24.358;2023-02-01T09:57:38;89909.19;;;0.56;72.28
76074;BME280;64776;42.636;24.358;2023-02-01T10:00:46;89908.13;;;0.82;71.91
76074;BME280;64776;42.636;24.358;2023-02-01T10:03:49;89909.53;;;0.70;71.77
76074;BME280;64776;42.636;24.358;2023-02-01T10:07:00;89892.31;;;0.28;73.60
76074;BME280;64776;42.636;24.358;2023-02-01T10:10:07;89891.44;;;0.03;74.28
76074;BME280;64776;42.636;24.358;2023-02-01T10:13:25;89882.88;;;0.15;73.27
76074;BME280;64776;42.636;24.358;2023-02-01T10:16:37;89904.53;;;0.19;74.16
76074;BME280;64776;42.636;24.358;2023-02-01T10:19:49;89888.88;;;0.15;73.68
76074;BME280;64776;42.636;24.358;2023-02-01T10:23:00;89900.59;;;0.27;73.79
76074;BME280;64776;42.636;24.358;2023-02-01T10:26:12;89888.59;;;0.54;72.01
76074;BME280;64776;42.636;24.358;2023-02-01T10:29:22;89868.28;;;0.71;70.70
76074;BME280;64776;42.636;24.358;2023-02-01T10:32:29;89875.72;;;0.31;71.63
76074;BME280;64776;42.636;24.358;2023-02-01T10:35:34;89855.56;;;0.57;70.86
76074;BME280;64776;42.636;24.358;2023-02-01T10:38:36;89869.56;;;0.38;71.41
76074;BME280;64776;42.636;24.358;2023-02-01T10:41:39;89859.56;;;0.61;70.22
76074;BME280;64776;42.636;24.358;2023-02-01T10:44:43;89872.69;;;0.61;70.91
76074;BME280;64776;42.636;24.358;2023-02-01T10:47:46;89871.41;;;0.53;70.30
76074;BME280;64776;42.636;24.358;2023-02-01T10:50:53;89845.00;;;0.86;69.83
76074;BME280;64776;42.636;24.358;2023-02-01T10:53:58;89853.13;;;0.62;69.07
76074;BME280;64776;42.636;24.358;2023-02-01T10:57:00;89856.25;;;0.86;69.72
76074;BME280;64776;42.636;24.358;2023-02-01T11:00:19;89835.88;;;0.90;68.93
76074;BME280;64776;42.636;24.358;2023-02-01T11:03:39;89843.31;;;0.92;68.37
76074;BME280;64776;42.636;24.358;2023-02-01T11:06:41;89846.34;;;0.77;69.19
76074;BME280;64776;42.636;24.358;2023-02-01T11:09:48;89841.63;;;0.98;68.09
76074;BME280;64776;42.636;24.358;2023-02-01T11:12:53;89821.81;;;0.97;67.90
76074;BME280;64776;42.636;24.358;2023-02-01T11:15:56;89838.28;;;1.10;67.50
76074;BME280;64776;42.636;24.358;2023-02-01T11:18:58;89814.50;;;1.51;65.44
76074;BME280;64776;42.636;24.358;2023-02-01T11:21:59;89839.41;;;1.46;65.55
76074;BME280;64776;42.636;24.358;2023-02-01T11:25:08;89840.88;;;1.60;66.36
76074;BME280;64776;42.636;24.358;2023-02-01T11:28:10;89840.41;;;1.27;65.68
76074;BME280;64776;42.636;24.358;2023-02-01T11:31:13;89848.06;;;1.34;66.44
76074;BME280;64776;42.636;24.358;2023-02-01T11:34:16;89843.66;;;1.19;66.87
76074;BME280;64776;42.636;24.358;2023-02-01T11:37:20;89841.22;;;1.12;67.45
76074;BME280;64776;42.636;24.358;2023-02-01T11:40:27;89846.16;;;1.22;67.14
76074;BME280;64776;42.636;24.358;2023-02-01T11:43:29;89843.03;;;1.27;67.10
76074;BME280;64776;42.636;24.358;2023-02-01T11:46:33;89840.09;;;1.13;67.72
76074;BME280;64776;42.636;24.358;2023-02-01T11:49:35;89834.09;;;1.25;67.26
76074;BME280;64776;42.636;24.358;2023-02-01T11:52:54;89834.19;;;0.96;67.47
76074;BME280;64776;42.636;24.358;2023-02-01T11:56:07;89841.75;;;0.94;67.63
76074;BME280;64776;42.636;24.358;2023-02-01T11:59:21;89858.47;;;1.00;67.73
76074;BME280;64776;42.636;24.358;2023-02-01T12:02:47;89829.97;;;1.24;68.33
76074;BME280;64776;42.636;24.358;2023-02-01T12:05:56;89848.38;;;1.24;67.76
76074;BME280;64776;42.636;24.358;2023-02-01T12:09:19;89848.16;;;1.43;66.71
76074;BME280;64776;42.636;24.358;2023-02-01T12:12:25;89871.47;;;1.04;67.50
76074;BME280;64776;42.636;24.358;2023-02-01T12:15:39;89849.34;;;1.17;67.58
76074;BME280;64776;42.636;24.358;2023-02-01T12:19:06;89857.09;;;1.33;66.40
76074;BME280;64776;42.636;24.358;2023-02-01T12:22:25;89846.59;;;1.33;66.23
76074;BME280;64776;42.636;24.358;2023-02-01T12:25:37;89836.28;;;1.26;66.99
76074;BME280;64776;42.636;24.358;2023-02-01T12:29:03;89824.19;;;1.29;67.18
76074;BME280;64776;42.636;24.358;2023-02-01T12:32:14;89844.72;;;1.34;66.97
76074;BME280;64776;42.636;24.358;2023-02-01T12:35:41;89828.63;;;1.19;66.06
76074;BME280;64776;42.636;24.358;2023-02-01T12:38:51;89823.88;;;1.14;65.84
76074;BME280;64776;42.636;24.358;2023-02-01T12:41:57;89820.00;;;1.31;66.11
76074;BME280;64776;42.636;24.358;2023-02-01T12:45:00;89825.47;;;0.99;65.63
76074;BME280;64776;42.636;24.358;2023-02-01T12:48:15;89812.53;;;0.92;65.96
76074;BME280;64776;42.636;24.358;2023-02-01T12:51:23;89790.06;;;0.91;65.29
76074;BME280;64776;42.636;24.358;2023-02-01T12:54:32;89820.53;;;1.14;65.27
76074;BME280;64776;42.636;24.358;2023-02-01T12:57:37;89833.97;;;1.28;64.66
76074;BME280;64776;42.636;24.358;2023-02-01T13:00:44;89820.00;;;1.19;63.54
76074;BME280;64776;42.636;24.358;2023-02-01T13:03:54;89834.59;;;1.07;64.04
76074;BME280;64776;42.636;24.358;2023-02-01T13:07:05;89852.06;;;1.26;64.83
76074;BME280;64776;42.636;24.358;2023-02-01T13:10:15;89843.97;;;1.08;65.42
76074;BME280;64776;42.636;24.358;2023-02-01T13:13:20;89832.09;;;1.16;65.85
76074;BME280;64776;42.636;24.358;2023-02-01T13:16:25;89840.16;;;1.22;65.66
76074;BME280;64776;42.636;24.358;2023-02-01T13:19:29;89861.31;;;1.31;65.17
76074;BME280;64776;42.636;24.358;2023-02-01T13:22:36;89856.16;;;1.27;64.60
76074;BME280;64776;42.636;24.358;2023-02-01T13:25:43;89857.72;;;1.12;65.13
76074;BME280;64776;42.636;24.358;2023-02-01T13:28:48;89862.47;;;1.17;65.88
76074;BME280;64776;42.636;24.358;2023-02-01T13:35:50;89851.00;;;1.24;64.92
76074;BME280;64776;42.636;24.358;2023-02-01T13:39:22;89843.44;;;1.13;63.54
76074;BME280;64776;42.636;24.358;2023-02-01T13:42:30;89851.72;;;1.12;62.66
76074;BME280;64776;42.636;24.358;2023-02-01T13:45:34;89842.28;;;1.02;63.12
76074;BME280;64776;42.636;24.358;2023-02-01T13:48:39;89840.06;;;1.00;62.48
76074;BME280;64776;42.636;24.358;2023-02-01T13:51:43;89845.66;;;1.02;62.92
76074;BME280;64776;42.636;24.358;2023-02-01T13:54:46;89846.38;;;1.03;61.42
76074;BME280;64776;42.636;24.358;2023-02-01T13:57:49;89850.91;;;1.15;61.53
76074;BME280;64776;42.636;24.358;2023-02-01T14:04:47;89845.66;;;1.15;62.65
76074;BME280;64776;42.636;24.358;2023-02-01T14:08:09;89867.91;;;1.10;62.79
76074;BME280;64776;42.636;24.358;2023-02-01T14:11:38;89867.28;;;0.94;63.80
76074;BME280;64776;42.636;24.358;2023-02-01T14:14:41;89859.72;;;0.96;64.54
76074;BME280;64776;42.636;24.358;2023-02-01T14:17:42;89873.59;;;0.96;62.17
76074;BME280;64776;42.636;24.358;2023-02-01T14:20:44;89871.16;;;0.89;63.23
76074;BME280;64776;42.636;24.358;2023-02-01T14:23:47;89882.38;;;0.77;63.97
76074;BME280;64776;42.636;24.358;2023-02-01T14:26:52;89870.59;;;0.69;62.97
76074;BME280;64776;42.636;24.358;2023-02-01T14:29:57;89880.94;;;0.60;62.95
76074;BME280;64776;42.636;24.358;2023-02-01T14:32:58;89898.19;;;0.61;62.47
76074;BME280;64776;42.636;24.358;2023-02-01T14:36:07;89896.06;;;0.56;63.88
76074;BME280;64776;42.636;24.358;2023-02-01T14:39:26;89910.34;;;0.55;64.39
76074;BME280;64776;42.636;24.358;2023-02-01T14:42:33;89906.56;;;0.56;64.40
76074;BME280;64776;42.636;24.358;2023-02-01T14:45:50;89907.31;;;0.56;63.83
76074;BME280;64776;42.636;24.358;2023-02-01T14:48:51;89904.03;;;0.52;64.13
76074;BME280;64776;42.636;24.358;2023-02-01T14:51:53;89908.22;;;0.50;64.11
76074;BME280;64776;42.636;24.358;2023-02-01T14:54:56;89902.16;;;0.53;63.50
76074;BME280;64776;42.636;24.358;2023-02-01T14:58:01;89892.91;;;0.48;63.41
76074;BME280;64776;42.636;24.358;2023-02-01T15:01:05;89913.88;;;0.48;62.59
76074;BME280;64776;42.636;24.358;2023-02-01T15:04:10;89898.56;;;0.47;62.70
76074;BME280;64776;42.636;24.358;2023-02-01T15:07:12;89897.06;;;0.46;62.37
76074;BME280;64776;42.636;24.358;2023-02-01T15:10:14;89893.00;;;0.45;60.16
76074;BME280;64776;42.636;24.358;2023-02-01T15:13:21;89897.91;;;0.43;59.74
76074;BME280;64776;42.636;24.358;2023-02-01T15:16:23;89885.88;;;0.45;58.76
76074;BME280;64776;42.636;24.358;2023-02-01T15:19:27;89883.00;;;0.40;58.36
76074;BME280;64776;42.636;24.358;2023-02-01T15:22:29;89884.81;;;0.43;59.33
76074;BME280;64776;42.636;24.358;2023-02-01T15:25:32;89876.19;;;0.42;59.98
76074;BME280;64776;42.636;24.358;2023-02-01T15:28:35;89888.44;;;0.33;62.07
76074;BME280;64776;42.636;24.358;2023-02-01T15:31:37;89882.44;;;0.32;60.80
76074;BME280;64776;42.636;24.358;2023-02-01T15:34:46;89903.34;;;0.36;61.11
76074;BME280;64776;42.636;24.358;2023-02-01T15:37:47;89900.97;;;0.25;63.67
76074;BME280;64776;42.636;24.358;2023-02-01T15:40:54;89901.56;;;0.17;64.34
76074;BME280;64776;42.636;24.358;2023-02-01T15:44:19;89912.91;;;0.14;65.02
76074;BME280;64776;42.636;24.358;2023-02-01T15:47:25;89917.81;;;0.12;64.83
76074;BME280;64776;42.636;24.358;2023-02-01T15:50:28;89925.84;;;0.05;66.26
76074;BME280;64776;42.636;24.358;2023-02-01T15:53:30;89924.50;;;0.00;65.98
76074;BME280;64776;42.636;24.358;2023-02-01T15:56:34;89930.44;;;0.00;66.98
76074;BME280;64776;42.636;24.358;2023-02-01T15:59:41;89942.91;;;-0.04;66.88
76074;BME280;64776;42.636;24.358;2023-02-01T16:02:51;89939.72;;;-0.11;68.58
76074;BME280;64776;42.636;24.358;2023-02-01T16:05:58;89941.69;;;-0.15;69.11
76074;BME280;64776;42.636;24.358;2023-02-01T16:09:02;89954.06;;;-0.16;68.45
76074;BME280;64776;42.636;24.358;2023-02-01T16:12:03;89954.81;;;-0.15;69.18
76074;BME280;64776;42.636;24.358;2023-02-01T16:15:07;89958.56;;;-0.16;69.64
76074;BME280;64776;42.636;24.358;2023-02-01T16:18:08;89959.41;;;-0.19;69.77
76074;BME280;64776;42.636;24.358;2023-02-01T16:21:10;89962.66;;;-0.15;69.25
76074;BME280;64776;42.636;24.358;2023-02-01T16:24:11;89954.22;;;-0.23;69.87
76074;BME280;64776;42.636;24.358;2023-02-01T16:27:12;89951.94;;;-0.21;69.36